sensor_id;sensor_type;location;lat;lon;timestamp;P1;durP1;ratioP1;P2;durP2;ratioP2
15132;SDS011;7667;51.232;17.110;2023-03-01T00:01:40;33.20;;;23.10;;
15132;SDS011;7667;51.232;17.110;2023-03-01T00:04:08;32.67;;;23.67;;
15132;SDS011;7667;51.232;17.110;2023-03-01T00:06:35;33.53;;;24.20;;
15132;SDS011;7667;51.232;17.110;2023-03-01T00:09:03;36.07;;;25.80;;
15132;SDS011;7667;51.232;17.110;2023-03-01T00:11:32;35.60;;;25.07;;
15132;SDS011;7667;51.232;17.110;2023-03-01T00:14:01;50.10;;;37.37;;
15132;SDS011;7667;51.232;17.110;2023-03-01T00:16:32;41.23;;;30.53;;
15132;SDS011;7667;51.232;17.110;2023-03-01T00:19:10;39.60;;;28.70;;
15132;SDS011;7667;51.232;17.110;2023-03-01T00:21:43;42.07;;;29.07;;
15132;SDS011;7667;51.232;17.110;2023-03-01T00:24:11;37.43;;;26.53;;
15132;SDS011;7667;51.232;17.110;2023-03-01T00:26:39;41.70;;;28.17;;
15132;SDS011;7667;51.232;17.110;2023-03-01T00:29:06;39.90;;;26.87;;
15132;SDS011;7667;51.232;17.110;2023-03-01T00:31:34;43.50;;;31.20;;
15132;SDS011;7667;51.232;17.110;2023-03-01T00:34:04;39.53;;;27.70;;
15132;SDS011;7667;51.232;17.110;2023-03-01T00:36:33;37.93;;;26.73;;
15132;SDS011;7667;51.232;17.110;2023-03-01T00:39:04;34.73;;;24.83;;
15132;SDS011;7667;51.232;17.110;2023-03-01T00:41:37;39.17;;;28.33;;
15132;SDS011;7667;51.232;17.110;2023-03-01T00:44:06;42.20;;;28.70;;
15132;SDS011;7667;51.232;17.110;2023-03-01T00:46:34;42.43;;;30.17;;
15132;SDS011;7667;51.232;17.110;2023-03-01T00:49:02;41.83;;;29.93;;
15132;SDS011;7667;51.232;17.110;2023-03-01T00:51:31;40.30;;;27.50;;
15132;SDS011;7667;51.232;17.110;2023-03-01T00:53:59;40.67;;;28.53;;
15132;SDS011;7667;51.232;17.110;2023-03-01T00:56:28;41.90;;;28.63;;
15132;SDS011;7667;51.232;17.110;2023-03-01T00:58:57;42.20;;;29.30;;
15132;SDS011;7667;51.232;17.110;2023-03-01T01:01:25;42.90;;;30.90;;
15132;SDS011;7667;51.232;17.110;2023-03-01T01:03:57;44.60;;;30.40;;
15132;SDS011;7667;51.232;17.110;2023-03-01T01:06:35;45.07;;;30.17;;
15132;SDS011;7667;51.232;17.110;2023-03-01T01:09:12;48.63;;;32.90;;
15132;SDS011;7667;51.232;17.110;2023-03-01T01:11:44;45.53;;;29.97;;
15132;SDS011;7667;51.232;17.110;2023-03-01T01:14:17;45.80;;;32.40;;
15132;SDS011;7667;51.232;17.110;2023-03-01T01:16:45;45.83;;;31.23;;
15132;SDS011;7667;51.232;17.110;2023-03-01T01:19:14;42.27;;;30.13;;
15132;SDS011;7667;51.232;17.110;2023-03-01T01:21:43;41.23;;;29.07;;
15132;SDS011;7667;51.232;17.110;2023-03-01T01:24:11;40.70;;;28.60;;
15132;SDS011;7667;51.232;17.110;2023-03-01T01:26:39;39.20;;;27.47;;
15132;SDS011;7667;51.232;17.110;2023-03-01T01:29:07;40.50;;;27.77;;
15132;SDS011;7667;51.232;17.110;2023-03-01T01:31:35;41.80;;;27.53;;
15132;SDS011;7667;51.232;17.110;2023-03-01T01:34:05;38.67;;;27.27;;
15132;SDS011;7667;51.232;17.110;2023-03-01T01:36:37;39.33;;;28.43;;
15132;SDS011;7667;51.232;17.110;2023-03-01T01:39:04;41.13;;;28.37;;
15132;SDS011;7667;51.232;17.110;2023-03-01T01:41:32;38.67;;;27.43;;
15132;SDS011;7667;51.232;17.110;2023-03-01T01:47:06;43.73;;;28.43;;
15132;SDS011;7667;51.232;17.110;2023-03-01T01:49:42;41.77;;;29.10;;
15132;SDS011;7667;51.232;17.110;2023-03-01T01:52:17;53.10;;;34.70;;
15132;SDS011;7667;51.232;17.110;2023-03-01T01:55:00;43.50;;;30.77;;
15132;SDS011;7667;51.232;17.110;2023-03-01T01:57:36;40.43;;;29.20;;
15132;SDS011;7667;51.232;17.110;2023-03-01T02:00:20;39.33;;;27.27;;
15132;SDS011;7667;51.232;17.110;2023-03-01T02:02:53;42.60;;;28.87;;
15132;SDS011;7667;51.232;17.110;2023-03-01T02:08:21;44.13;;;31.70;;
15132;SDS011;7667;51.232;17.110;2023-03-01T02:10:53;50.30;;;33.47;;
15132;SDS011;7667;51.232;17.110;2023-03-01T02:13:23;43.90;;;31.83;;
15132;SDS011;7667;51.232;17.110;2023-03-01T02:15:50;39.93;;;28.60;;
15132;SDS011;7667;51.232;17.110;2023-03-01T02:18:19;40.37;;;28.50;;
15132;SDS011;7667;51.232;17.110;2023-03-01T02:20:54;40.07;;;29.50;;
15132;SDS011;7667;51.232;17.110;2023-03-01T02:23:59;40.33;;;27.17;;
15132;SDS011;7667;51.232;17.110;2023-03-01T02:27:23;42.53;;;28.60;;
15132;SDS011;7667;51.232;17.110;2023-03-01T02:30:05;41.87;;;30.63;;
15132;SDS011;7667;51.232;17.110;2023-03-01T02:32:34;44.07;;;30.97;;
15132;SDS011;7667;51.232;17.110;2023-03-01T02:35:02;45.13;;;34.67;;
15132;SDS011;7667;51.232;17.110;2023-03-01T02:37:33;40.00;;;30.50;;
15132;SDS011;7667;51.232;17.110;2023-03-01T02:40:04;38.10;;;27.73;;
15132;SDS011;7667;51.232;17.110;2023-03-01T02:42:44;36.97;;;26.70;;
15132;SDS011;7667;51.232;17.110;2023-03-01T02:45:20;40.50;;;28.40;;
15132;SDS011;7667;51.232;17.110;2023-03-01T02:47:48;40.13;;;28.23;;
15132;SDS011;7667;51.232;17.110;2023-03-01T02:50:35;35.23;;;25.50;;
15132;SDS011;7667;51.232;17.110;2023-03-01T02:56:25;34.30;;;23.93;;
15132;SDS011;7667;51.232;17.110;2023-03-01T02:58:53;34.50;;;23.60;;
15132;SDS011;7667;51.232;17.110;2023-03-01T03:01:21;35.50;;;26.10;;
15132;SDS011;7667;51.232;17.110;2023-03-01T03:03:49;35.60;;;24.83;;
15132;SDS011;7667;51.232;17.110;2023-03-01T03:06:16;32.07;;;23.03;;
15132;SDS011;7667;51.232;17.110;2023-03-01T03:08:44;35.10;;;23.57;;
15132;SDS011;7667;51.232;17.110;2023-03-01T03:11:11;36.13;;;23.60;;
15132;SDS011;7667;51.232;17.110;2023-03-01T03:13:39;36.17;;;24.13;;
15132;SDS011;7667;51.232;17.110;2023-03-01T03:16:14;35.23;;;25.50;;
15132;SDS011;7667;51.232;17.110;2023-03-01T03:18:42;36.00;;;27.13;;
15132;SDS011;7667;51.232;17.110;2023-03-01T03:21:11;32.73;;;23.53;;
15132;SDS011;7667;51.232;17.110;2023-03-01T03:23:40;33.10;;;24.57;;
15132;SDS011;7667;51.232;17.110;2023-03-01T03:26:07;31.27;;;23.27;;
15132;SDS011;7667;51.232;17.110;2023-03-01T03:28:36;35.13;;;24.17;;
15132;SDS011;7667;51.232;17.110;2023-03-01T03:31:07;33.60;;;24.47;;
15132;SDS011;7667;51.232;17.110;2023-03-01T03:33:35;35.50;;;24.57;;
15132;SDS011;7667;51.232;17.110;2023-03-01T03:36:02;29.30;;;20.93;;
15132;SDS011;7667;51.232;17.110;2023-03-01T03:38:30;33.33;;;24.53;;
15132;SDS011;7667;51.232;17.110;2023-03-01T03:41:03;32.10;;;23.77;;
15132;SDS011;7667;51.232;17.110;2023-03-01T03:43:34;27.33;;;20.63;;
15132;SDS011;7667;51.232;17.110;2023-03-01T03:46:04;28.10;;;21.17;;
15132;SDS011;7667;51.232;17.110;2023-03-01T03:48:34;29.90;;;21.00;;
15132;SDS011;7667;51.232;17.110;2023-03-01T03:51:04;26.27;;;18.40;;
15132;SDS011;7667;51.232;17.110;2023-03-01T03:53:32;25.63;;;20.17;;
15132;SDS011;7667;51.232;17.110;2023-03-01T03:56:00;31.53;;;21.70;;
15132;SDS011;7667;51.232;17.110;2023-03-01T03:58:28;29.17;;;21.33;;
15132;SDS011;7667;51.232;17.110;2023-03-01T04:00:56;31.13;;;24.17;;
15132;SDS011;7667;51.232;17.110;2023-03-01T04:03:24;30.80;;;21.50;;
15132;SDS011;7667;51.232;17.110;2023-03-01T04:05:54;28.63;;;20.60;;
15132;SDS011;7667;51.232;17.110;2023-03-01T04:08:25;28.67;;;19.57;;
15132;SDS011;7667;51.232;17.110;2023-03-01T04:10:58;26.67;;;19.60;;
15132;SDS011;7667;51.232;17.110;2023-03-01T04:13:48;28.77;;;20.60;;
15132;SDS011;7667;51.232;17.110;2023-03-01T04:16:16;25.87;;;20.47;;
15132;SDS011;7667;51.232;17.110;2023-03-01T04:18:44;26.80;;;19.90;;
15132;SDS011;7667;51.232;17.110;2023-03-01T04:21:12;27.93;;;20.17;;
15132;SDS011;7667;51.232;17.110;2023-03-01T04:23:40;31.83;;;23.03;;
15132;SDS011;7667;51.232;17.110;2023-03-01T04:26:07;37.27;;;25.40;;
15132;SDS011;7667;51.232;17.110;2023-03-01T04:28:39;38.60;;;30.27;;
15132;SDS011;7667;51.232;17.110;2023-03-01T04:31:13;31.60;;;23.80;;
15132;SDS011;7667;51.232;17.110;2023-03-01T04:33:54;29.73;;;21.17;;
15132;SDS011;7667;51.232;17.110;2023-03-01T04:36:26;29.40;;;21.47;;
15132;SDS011;7667;51.232;17.110;2023-03-01T04:38:56;34.33;;;24.47;;
15132;SDS011;7667;51.232;17.110;2023-03-01T04:41:24;28.90;;;21.03;;
15132;SDS011;7667;51.232;17.110;2023-03-01T04:43:52;28.53;;;21.90;;
15132;SDS011;7667;51.232;17.110;2023-03-01T04:46:20;27.07;;;20.07;;
15132;SDS011;7667;51.232;17.110;2023-03-01T04:48:48;28.83;;;21.00;;
15132;SDS011;7667;51.232;17.110;2023-03-01T04:51:16;30.33;;;22.00;;
15132;SDS011;7667;51.232;17.110;2023-03-01T04:53:45;29.90;;;22.43;;
15132;SDS011;7667;51.232;17.110;2023-03-01T04:56:12;33.70;;;23.73;;
15132;SDS011;7667;51.232;17.110;2023-03-01T04:58:41;30.03;;;21.83;;
15132;SDS011;7667;51.232;17.110;2023-03-01T05:01:09;29.93;;;21.23;;
15132;SDS011;7667;51.232;17.110;2023-03-01T05:03:42;28.67;;;21.30;;
15132;SDS011;7667;51.232;17.110;2023-03-01T05:06:11;26.47;;;19.53;;
15132;SDS011;7667;51.232;17.110;2023-03-01T05:08:39;28.73;;;20.77;;
15132;SDS011;7667;51.232;17.110;2023-03-01T05:11:08;28.37;;;20.17;;
15132;SDS011;7667;51.232;17.110;2023-03-01T05:13:37;28.43;;;20.97;;
15132;SDS011;7667;51.232;17.110;2023-03-01T05:16:06;31.07;;;21.10;;
15132;SDS011;7667;51.232;17.110;2023-03-01T05:18:38;29.10;;;20.17;;
15132;SDS011;7667;51.232;17.110;2023-03-01T05:21:11;30.50;;;20.43;;
15132;SDS011;7667;51.232;17.110;2023-03-01T05:23:42;30.87;;;21.13;;
15132;SDS011;7667;51.232;17.110;2023-03-01T05:26:11;27.93;;;20.47;;
15132;SDS011;7667;51.232;17.110;2023-03-01T05:28:54;27.47;;;20.03;;
15132;SDS011;7667;51.232;17.110;2023-03-01T05:31:26;28.70;;;19.70;;
15132;SDS011;7667;51.232;17.110;2023-03-01T05:33:54;28.27;;;19.57;;
15132;SDS011;7667;51.232;17.110;2023-03-01T05:36:22;26.67;;;19.30;;
15132;SDS011;7667;51.232;17.110;2023-03-01T05:38:49;27.10;;;19.23;;
15132;SDS011;7667;51.232;17.110;2023-03-01T05:41:17;28.27;;;21.57;;
15132;SDS011;7667;51.232;17.110;2023-03-01T05:43:44;30.30;;;21.20;;
15132;SDS011;7667;51.232;17.110;2023-03-01T05:46:11;34.13;;;22.33;;
15132;SDS011;7667;51.232;17.110;2023-03-01T05:48:41;35.73;;;22.73;;
15132;SDS011;7667;51.232;17.110;2023-03-01T05:51:10;39.03;;;27.47;;
15132;SDS011;7667;51.232;17.110;2023-03-01T05:53:38;39.67;;;26.93;;
15132;SDS011;7667;51.232;17.110;2023-03-01T05:56:06;39.57;;;25.37;;
15132;SDS011;7667;51.232;17.110;2023-03-01T05:58:34;44.33;;;32.77;;
15132;SDS011;7667;51.232;17.110;2023-03-01T06:01:01;40.40;;;30.17;;
15132;SDS011;7667;51.232;17.110;2023-03-01T06:03:29;38.87;;;26.10;;
15132;SDS011;7667;51.232;17.110;2023-03-01T06:05:56;40.00;;;25.73;;
15132;SDS011;7667;51.232;17.110;2023-03-01T06:08:25;39.67;;;24.83;;
15132;SDS011;7667;51.232;17.110;2023-03-01T06:10:54;35.80;;;23.97;;
15132;SDS011;7667;51.232;17.110;2023-03-01T06:13:21;33.07;;;24.10;;
15132;SDS011;7667;51.232;17.110;2023-03-01T06:15:50;32.10;;;22.30;;
15132;SDS011;7667;51.232;17.110;2023-03-01T06:18:18;61.83;;;41.00;;
15132;SDS011;7667;51.232;17.110;2023-03-01T06:20:52;42.60;;;29.43;;
15132;SDS011;7667;51.232;17.110;2023-03-01T06:23:21;36.63;;;25.00;;
15132;SDS011;7667;51.232;17.110;2023-03-01T06:25:50;37.63;;;27.23;;
15132;SDS011;7667;51.232;17.110;2023-03-01T06:28:18;37.27;;;26.27;;
15132;SDS011;7667;51.232;17.110;2023-03-01T06:30:45;32.13;;;23.03;;
15132;SDS011;7667;51.232;17.110;2023-03-01T06:33:13;32.67;;;22.37;;
15132;SDS011;7667;51.232;17.110;2023-03-01T06:35:41;38.60;;;22.37;;
15132;SDS011;7667;51.232;17.110;2023-03-01T06:38:08;42.13;;;25.33;;
15132;SDS011;7667;51.232;17.110;2023-03-01T06:40:36;58.57;;;37.63;;
15132;SDS011;7667;51.232;17.110;2023-03-01T06:43:03;38.30;;;25.10;;
15132;SDS011;7667;51.232;17.110;2023-03-01T06:45:31;33.40;;;23.27;;
15132;SDS011;7667;51.232;17.110;2023-03-01T06:48:06;31.53;;;20.80;;
15132;SDS011;7667;51.232;17.110;2023-03-01T06:50:34;40.63;;;23.47;;
15132;SDS011;7667;51.232;17.110;2023-03-01T06:53:03;38.90;;;27.60;;
15132;SDS011;7667;51.232;17.110;2023-03-01T06:55:31;36.43;;;25.90;;
15132;SDS011;7667;51.232;17.110;2023-03-01T06:58:00;34.37;;;25.53;;
15132;SDS011;7667;51.232;17.110;2023-03-01T07:00:29;35.97;;;24.93;;
15132;SDS011;7667;51.232;17.110;2023-03-01T07:03:00;43.83;;;28.67;;
15132;SDS011;7667;51.232;17.110;2023-03-01T07:05:29;40.07;;;28.57;;
15132;SDS011;7667;51.232;17.110;2023-03-01T07:07:57;41.07;;;28.60;;
15132;SDS011;7667;51.232;17.110;2023-03-01T07:10:25;39.30;;;27.23;;
15132;SDS011;7667;51.232;17.110;2023-03-01T07:12:58;38.37;;;27.93;;
15132;SDS011;7667;51.232;17.110;2023-03-01T07:15:28;37.90;;;25.83;;
15132;SDS011;7667;51.232;17.110;2023-03-01T07:17:55;40.87;;;28.10;;
15132;SDS011;7667;51.232;17.110;2023-03-01T07:20:23;39.30;;;28.20;;
15132;SDS011;7667;51.232;17.110;2023-03-01T07:22:52;47.50;;;32.67;;
15132;SDS011;7667;51.232;17.110;2023-03-01T07:25:21;48.97;;;32.70;;
15132;SDS011;7667;51.232;17.110;2023-03-01T07:27:52;53.30;;;33.83;;
15132;SDS011;7667;51.232;17.110;2023-03-01T07:30:21;46.77;;;30.60;;
15132;SDS011;7667;51.232;17.110;2023-03-01T07:32:52;51.53;;;33.37;;
15132;SDS011;7667;51.232;17.110;2023-03-01T07:35:25;50.93;;;32.83;;
15132;SDS011;7667;51.232;17.110;2023-03-01T07:37:53;51.60;;;32.37;;
15132;SDS011;7667;51.232;17.110;2023-03-01T07:40:21;48.87;;;33.23;;
15132;SDS011;7667;51.232;17.110;2023-03-01T07:42:48;35.87;;;24.83;;
15132;SDS011;7667;51.232;17.110;2023-03-01T07:45:16;37.50;;;25.97;;
15132;SDS011;7667;51.232;17.110;2023-03-01T07:47:44;36.67;;;25.13;;
15132;SDS011;7667;51.232;17.110;2023-03-01T07:50:11;39.00;;;25.93;;
15132;SDS011;7667;51.232;17.110;2023-03-01T07:52:40;34.80;;;24.27;;
15132;SDS011;7667;51.232;17.110;2023-03-01T07:55:07;30.97;;;21.97;;
15132;SDS011;7667;51.232;17.110;2023-03-01T07:57:35;26.77;;;20.20;;
15132;SDS011;7667;51.232;17.110;2023-03-01T08:00:02;26.53;;;19.33;;
15132;SDS011;7667;51.232;17.110;2023-03-01T08:02:31;28.03;;;19.70;;
15132;SDS011;7667;51.232;17.110;2023-03-01T08:04:59;41.70;;;29.77;;
15132;SDS011;7667;51.232;17.110;2023-03-01T08:07:26;38.50;;;28.23;;
15132;SDS011;7667;51.232;17.110;2023-03-01T08:09:53;35.93;;;26.23;;
15132;SDS011;7667;51.232;17.110;2023-03-01T08:12:21;31.47;;;22.83;;
15132;SDS011;7667;51.232;17.110;2023-03-01T08:14:49;42.70;;;26.37;;
15132;SDS011;7667;51.232;17.110;2023-03-01T08:17:16;38.47;;;27.87;;
15132;SDS011;7667;51.232;17.110;2023-03-01T08:19:44;33.10;;;24.30;;
15132;SDS011;7667;51.232;17.110;2023-03-01T08:22:11;34.67;;;24.17;;
15132;SDS011;7667;51.232;17.110;2023-03-01T08:24:39;30.97;;;22.30;;
15132;SDS011;7667;51.232;17.110;2023-03-01T08:27:06;28.60;;;22.07;;
15132;SDS011;7667;51.232;17.110;2023-03-01T08:29:34;31.80;;;23.30;;
15132;SDS011;7667;51.232;17.110;2023-03-01T08:32:01;29.63;;;22.33;;
15132;SDS011;7667;51.232;17.110;2023-03-01T08:34:29;28.60;;;19.90;;
15132;SDS011;7667;51.232;17.110;2023-03-01T08:36:58;28.17;;;22.03;;
15132;SDS011;7667;51.232;17.110;2023-03-01T08:39:25;26.97;;;21.23;;
15132;SDS011;7667;51.232;17.110;2023-03-01T08:41:53;26.10;;;20.30;;
15132;SDS011;7667;51.232;17.110;2023-03-01T08:44:21;22.10;;;16.17;;
15132;SDS011;7667;51.232;17.110;2023-03-01T08:46:49;21.27;;;15.47;;
15132;SDS011;7667;51.232;17.110;2023-03-01T08:49:19;20.43;;;15.00;;
15132;SDS011;7667;51.232;17.110;2023-03-01T08:51:47;21.70;;;16.47;;
15132;SDS011;7667;51.232;17.110;2023-03-01T08:54:16;22.07;;;16.27;;
15132;SDS011;7667;51.232;17.110;2023-03-01T08:56:47;24.87;;;18.10;;
15132;SDS011;7667;51.232;17.110;2023-03-01T08:59:15;23.90;;;18.60;;
15132;SDS011;7667;51.232;17.110;2023-03-01T09:01:44;22.53;;;17.20;;
15132;SDS011;7667;51.232;17.110;2023-03-01T09:04:12;22.17;;;16.57;;
15132;SDS011;7667;51.232;17.110;2023-03-01T09:06:42;21.10;;;15.43;;
15132;SDS011;7667;51.232;17.110;2023-03-01T09:09:12;19.23;;;15.37;;
15132;SDS011;7667;51.232;17.110;2023-03-01T09:11:44;20.97;;;15.20;;
15132;SDS011;7667;51.232;17.110;2023-03-01T09:14:13;18.87;;;13.47;;
15132;SDS011;7667;51.232;17.110;2023-03-01T09:16:41;19.67;;;13.40;;
15132;SDS011;7667;51.232;17.110;2023-03-01T09:19:10;18.93;;;13.77;;
15132;SDS011;7667;51.232;17.110;2023-03-01T09:21:38;17.33;;;13.17;;
15132;SDS011;7667;51.232;17.110;2023-03-01T09:24:11;18.60;;;13.83;;
15132;SDS011;7667;51.232;17.110;2023-03-01T09:26:41;20.07;;;13.70;;
15132;SDS011;7667;51.232;17.110;2023-03-01T09:29:09;20.27;;;14.50;;
15132;SDS011;7667;51.232;17.110;2023-03-01T09:31:36;16.63;;;12.83;;
15132;SDS011;7667;51.232;17.110;2023-03-01T09:34:05;16.27;;;12.53;;
15132;SDS011;7667;51.232;17.110;2023-03-01T09:36:33;15.67;;;11.77;;
15132;SDS011;7667;51.232;17.110;2023-03-01T09:39:02;15.27;;;11.77;;
15132;SDS011;7667;51.232;17.110;2023-03-01T09:44:31;13.70;;;11.70;;
15132;SDS011;7667;51.232;17.110;2023-03-01T09:47:01;14.97;;;12.03;;
15132;SDS011;7667;51.232;17.110;2023-03-01T09:49:30;15.93;;;11.83;;
15132;SDS011;7667;51.232;17.110;2023-03-01T09:52:11;17.40;;;13.43;;
15132;SDS011;7667;51.232;17.110;2023-03-01T09:54:59;16.83;;;12.73;;
15132;SDS011;7667;51.232;17.110;2023-03-01T09:57:33;14.63;;;11.53;;
15132;SDS011;7667;51.232;17.110;2023-03-01T10:00:43;22.33;;;15.37;;
15132;SDS011;7667;51.232;17.110;2023-03-01T10:06:25;20.50;;;15.20;;
15132;SDS011;7667;51.232;17.110;2023-03-01T10:09:10;24.57;;;16.10;;
15132;SDS011;7667;51.232;17.110;2023-03-01T10:11:44;23.73;;;17.70;;
15132;SDS011;7667;51.232;17.110;2023-03-01T10:22:51;15.20;;;10.93;;
15132;SDS011;7667;51.232;17.110;2023-03-01T10:25:36;15.20;;;11.33;;
15132;SDS011;7667;51.232;17.110;2023-03-01T10:34:14;15.33;;;11.23;;
15132;SDS011;7667;51.232;17.110;2023-03-01T10:36:47;17.03;;;12.07;;
15132;SDS011;7667;51.232;17.110;2023-03-01T10:42:30;15.20;;;11.27;;
15132;SDS011;7667;51.232;17.110;2023-03-01T10:50:35;16.23;;;11.50;;
15132;SDS011;7667;51.232;17.110;2023-03-01T10:53:19;15.23;;;12.20;;
15132;SDS011;7667;51.232;17.110;2023-03-01T10:56:05;15.73;;;12.40;;
15132;SDS011;7667;51.232;17.110;2023-03-01T11:01:30;15.30;;;11.90;;
15132;SDS011;7667;51.232;17.110;2023-03-01T11:06:33;15.63;;;11.50;;
15132;SDS011;7667;51.232;17.110;2023-03-01T11:11:50;16.57;;;12.17;;
15132;SDS011;7667;51.232;17.110;2023-03-01T11:14:21;15.87;;;11.83;;
15132;SDS011;7667;51.232;17.110;2023-03-01T11:17:00;16.50;;;12.20;;
15132;SDS011;7667;51.232;17.110;2023-03-01T11:19:32;17.40;;;12.33;;
15132;SDS011;7667;51.232;17.110;2023-03-01T11:22:11;21.97;;;13.23;;
15132;SDS011;7667;51.232;17.110;2023-03-01T11:24:46;15.30;;;11.87;;
15132;SDS011;7667;51.232;17.110;2023-03-01T11:27:36;16.10;;;12.83;;
15132;SDS011;7667;51.232;17.110;2023-03-01T11:30:22;16.03;;;11.60;;
15132;SDS011;7667;51.232;17.110;2023-03-01T11:35:59;16.43;;;13.10;;
15132;SDS011;7667;51.232;17.110;2023-03-01T11:38:50;36.53;;;20.43;;
15132;SDS011;7667;51.232;17.110;2023-03-01T11:41:21;14.73;;;11.20;;
15132;SDS011;7667;51.232;17.110;2023-03-01T12:07:32;20.07;;;13.87;;
15132;SDS011;7667;51.232;17.110;2023-03-01T12:10:28;17.27;;;12.43;;
15132;SDS011;7667;51.232;17.110;2023-03-01T12:16:11;18.03;;;13.50;;
15132;SDS011;7667;51.232;17.110;2023-03-01T12:19:07;17.10;;;13.10;;
15132;SDS011;7667;51.232;17.110;2023-03-01T12:22:02;16.70;;;12.40;;
15132;SDS011;7667;51.232;17.110;2023-03-01T12:31:05;18.37;;;11.40;;
15132;SDS011;7667;51.232;17.110;2023-03-01T12:33:49;16.87;;;11.60;;
15132;SDS011;7667;51.232;17.110;2023-03-01T12:40:12;16.03;;;11.67;;
15132;SDS011;7667;51.232;17.110;2023-03-01T12:51:39;17.13;;;11.70;;
15132;SDS011;7667;51.232;17.110;2023-03-01T12:54:26;15.47;;;11.40;;
15132;SDS011;7667;51.232;17.110;2023-03-01T12:56:58;16.40;;;11.03;;
15132;SDS011;7667;51.232;17.110;2023-03-01T13:06:05;13.07;;;10.30;;
15132;SDS011;7667;51.232;17.110;2023-03-01T13:11:27;14.87;;;10.97;;
15132;SDS011;7667;51.232;17.110;2023-03-01T13:14:37;15.63;;;10.97;;
15132;SDS011;7667;51.232;17.110;2023-03-01T13:16:50;15.67;;;11.63;;
15132;SDS011;7667;51.232;17.110;2023-03-01T13:19:22;14.63;;;10.93;;
15132;SDS011;7667;51.232;17.110;2023-03-01T13:21:53;16.13;;;11.43;;
15132;SDS011;7667;51.232;17.110;2023-03-01T13:32:24;15.57;;;10.77;;
15132;SDS011;7667;51.232;17.110;2023-03-01T13:37:41;18.17;;;12.47;;
15132;SDS011;7667;51.232;17.110;2023-03-01T13:42:47;16.70;;;11.03;;
15132;SDS011;7667;51.232;17.110;2023-03-01T13:45:40;16.23;;;11.43;;
15132;SDS011;7667;51.232;17.110;2023-03-01T13:51:07;15.63;;;11.27;;
15132;SDS011;7667;51.232;17.110;2023-03-01T13:53:42;15.73;;;11.30;;
15132;SDS011;7667;51.232;17.110;2023-03-01T13:56:16;17.93;;;12.13;;
15132;SDS011;7667;51.232;17.110;2023-03-01T13:58:54;14.73;;;10.47;;
15132;SDS011;7667;51.232;17.110;2023-03-01T14:01:32;16.13;;;11.50;;
15132;SDS011;7667;51.232;17.110;2023-03-01T14:04:03;16.63;;;11.70;;
15132;SDS011;7667;51.232;17.110;2023-03-01T14:06:49;20.17;;;11.77;;
15132;SDS011;7667;51.232;17.110;2023-03-01T14:20:19;15.73;;;10.83;;
15132;SDS011;7667;51.232;17.110;2023-03-01T14:22:49;15.87;;;10.47;;
15132;SDS011;7667;51.232;17.110;2023-03-01T14:25:23;16.20;;;9.97;;
15132;SDS011;7667;51.232;17.110;2023-03-01T14:28:11;14.07;;;9.97;;
15132;SDS011;7667;51.232;17.110;2023-03-01T14:30:53;16.53;;;10.43;;
15132;SDS011;7667;51.232;17.110;2023-03-01T14:33:30;15.53;;;11.03;;
15132;SDS011;7667;51.232;17.110;2023-03-01T14:36:10;15.27;;;10.90;;
15132;SDS011;7667;51.232;17.110;2023-03-01T14:38:41;15.97;;;10.67;;
15132;SDS011;7667;51.232;17.110;2023-03-01T14:41:23;14.83;;;9.30;;
15132;SDS011;7667;51.232;17.110;2023-03-01T14:43:55;20.97;;;10.80;;
15132;SDS011;7667;51.232;17.110;2023-03-01T14:46:41;15.27;;;11.20;;
15132;SDS011;7667;51.232;17.110;2023-03-01T14:49:22;16.63;;;11.13;;
15132;SDS011;7667;51.232;17.110;2023-03-01T14:52:04;14.73;;;10.50;;
15132;SDS011;7667;51.232;17.110;2023-03-01T14:57:18;16.10;;;10.57;;
15132;SDS011;7667;51.232;17.110;2023-03-01T14:59:52;18.50;;;12.53;;
15132;SDS011;7667;51.232;17.110;2023-03-01T15:02:25;23.43;;;14.27;;
15132;SDS011;7667;51.232;17.110;2023-03-01T15:04:55;14.63;;;10.30;;
15132;SDS011;7667;51.232;17.110;2023-03-01T15:07:36;18.27;;;12.30;;
15132;SDS011;7667;51.232;17.110;2023-03-01T15:10:14;30.40;;;22.20;;
15132;SDS011;7667;51.232;17.110;2023-03-01T15:12:50;18.57;;;11.87;;
15132;SDS011;7667;51.232;17.110;2023-03-01T15:18:00;18.13;;;12.83;;
15132;SDS011;7667;51.232;17.110;2023-03-01T15:23:55;14.97;;;10.90;;
15132;SDS011;7667;51.232;17.110;2023-03-01T15:26:53;20.13;;;15.20;;
15132;SDS011;7667;51.232;17.110;2023-03-01T15:29:33;17.73;;;11.80;;
15132;SDS011;7667;51.232;17.110;2023-03-01T15:41:25;16.87;;;10.83;;
15132;SDS011;7667;51.232;17.110;2023-03-01T15:43:59;17.23;;;11.13;;
15132;SDS011;7667;51.232;17.110;2023-03-01T15:46:44;15.37;;;11.20;;
15132;SDS011;7667;51.232;17.110;2023-03-01T15:52:30;17.60;;;11.23;;
15132;SDS011;7667;51.232;17.110;2023-03-01T15:55:26;18.60;;;10.97;;
15132;SDS011;7667;51.232;17.110;2023-03-01T15:58:00;14.87;;;10.60;;
15132;SDS011;7667;51.232;17.110;2023-03-01T16:00:41;19.40;;;12.67;;
15132;SDS011;7667;51.232;17.110;2023-03-01T16:03:25;20.67;;;14.53;;
15132;SDS011;7667;51.232;17.110;2023-03-01T16:05:53;16.87;;;11.93;;
15132;SDS011;7667;51.232;17.110;2023-03-01T16:08:20;18.87;;;12.77;;
15132;SDS011;7667;51.232;17.110;2023-03-01T16:10:48;30.53;;;17.77;;
15132;SDS011;7667;51.232;17.110;2023-03-01T16:13:18;33.47;;;22.33;;
15132;SDS011;7667;51.232;17.110;2023-03-01T16:15:45;30.93;;;21.73;;
15132;SDS011;7667;51.232;17.110;2023-03-01T16:18:13;23.93;;;17.10;;
15132;SDS011;7667;51.232;17.110;2023-03-01T16:20:41;24.70;;;17.53;;
15132;SDS011;7667;51.232;17.110;2023-03-01T16:23:10;23.83;;;17.97;;
15132;SDS011;7667;51.232;17.110;2023-03-01T16:25:38;24.87;;;17.27;;
15132;SDS011;7667;51.232;17.110;2023-03-01T16:28:05;27.23;;;18.53;;
15132;SDS011;7667;51.232;17.110;2023-03-01T16:30:37;25.90;;;16.60;;
15132;SDS011;7667;51.232;17.110;2023-03-01T16:33:06;24.60;;;18.07;;
15132;SDS011;7667;51.232;17.110;2023-03-01T16:35:55;28.63;;;19.47;;
15132;SDS011;7667;51.232;17.110;2023-03-01T16:38:22;32.77;;;21.80;;
15132;SDS011;7667;51.232;17.110;2023-03-01T16:40:50;33.90;;;25.03;;
15132;SDS011;7667;51.232;17.110;2023-03-01T16:43:18;27.27;;;19.40;;
15132;SDS011;7667;51.232;17.110;2023-03-01T16:45:46;23.20;;;17.10;;
15132;SDS011;7667;51.232;17.110;2023-03-01T16:48:14;28.17;;;20.43;;
15132;SDS011;7667;51.232;17.110;2023-03-01T16:50:42;25.43;;;18.53;;
15132;SDS011;7667;51.232;17.110;2023-03-01T16:53:10;31.40;;;21.27;;
15132;SDS011;7667;51.232;17.110;2023-03-01T16:55:37;43.70;;;28.60;;
15132;SDS011;7667;51.232;17.110;2023-03-01T16:58:11;48.80;;;31.10;;
15132;SDS011;7667;51.232;17.110;2023-03-01T17:00:39;60.40;;;35.73;;
15132;SDS011;7667;51.232;17.110;2023-03-01T17:03:07;53.50;;;32.80;;
15132;SDS011;7667;51.232;17.110;2023-03-01T17:05:34;28.83;;;19.63;;
15132;SDS011;7667;51.232;17.110;2023-03-01T17:08:02;27.83;;;20.50;;
15132;SDS011;7667;51.232;17.110;2023-03-01T17:10:29;24.33;;;17.00;;
15132;SDS011;7667;51.232;17.110;2023-03-01T17:12:57;30.37;;;21.13;;
15132;SDS011;7667;51.232;17.110;2023-03-01T17:15:24;33.40;;;22.93;;
15132;SDS011;7667;51.232;17.110;2023-03-01T17:17:52;33.60;;;22.80;;
15132;SDS011;7667;51.232;17.110;2023-03-01T17:20:19;27.40;;;20.07;;
15132;SDS011;7667;51.232;17.110;2023-03-01T17:22:47;28.43;;;20.30;;